Time;durP1;ratioP1;P1;durP2;ratioP2;P2;SDS_P1;SDS_P2;PMS_P1;PMS_P2;Temp;Humidity;BMP_temperature;BMP_pressure;BME280_temperature;BME280_humidity;BME280_pressure;Samples;Min_cycle;Max_cycle;Signal;HPM_P1;HPM_P2
2022/05/07 00:02:09;;;;;;;1.43;1.00;;;14.20;95.60;;;;;;5015946;28;20504;-80
2022/05/07 00:04:36;;;;;;;1.50;1.03;;;14.20;94.60;;;;;;5014417;28;20486;-79
2022/05/07 00:07:05;;;;;;;1.47;1.00;;;14.10;94.90;;;;;;5013503;28;20471;-77
2022/05/07 00:09:32;;;;;;;1.50;1.03;;;14.10;95.20;;;;;;5014266;28;20491;-77
2022/05/07 00:11:59;;;;;;;1.47;1.00;;;14.10;96.10;;;;;;5012857;28;20491;-79
2022/05/07 00:14:26;;;;;;;1.43;1.00;;;14.00;95.10;;;;;;5011915;28;20471;-80
2022/05/07 00:19:37;;;;;;;1.43;1.00;;;14.00;95.10;;;;;;5013496;28;20530;-78
2022/05/07 00:22:06;;;;;;;1.50;0.97;;;14.00;95.20;;;;;;5019261;28;20452;-78
2022/05/07 00:24:32;;;;;;;1.50;1.10;;;14.00;95.40;;;;;;5012308;28;21123;-80
2022/05/07 00:26:59;;;;;;;1.50;1.10;;;14.00;95.40;;;;;;5017417;28;20471;-78
2022/05/07 00:29:26;;;;;;;1.50;1.17;;;13.90;96.50;;;;;;5013314;28;20466;-79
2022/05/07 00:31:53;;;;;;;1.50;1.00;;;13.80;96.30;;;;;;5018832;28;20492;-79
2022/05/07 00:34:21;;;;;;;1.50;1.00;;;13.80;96.70;;;;;;5014476;28;20475;-78
2022/05/07 00:36:47;;;;;;;2.07;1.87;;;13.80;96.90;;;;;;5016438;28;20537;-79
2022/05/07 00:39:16;;;;;;;1.50;1.00;;;13.80;97.10;;;;;;5013129;28;20460;-78
2022/05/07 00:41:42;;;;;;;1.60;1.20;;;13.80;96.80;;;;;;5016894;28;20878;-79
2022/05/07 00:44:09;;;;;;;1.43;1.00;;;13.80;98.20;;;;;;5024741;28;20474;-78
2022/05/07 00:46:37;;;;;;;1.43;1.00;;;13.70;98.20;;;;;;5011761;28;21025;-79
2022/05/07 00:49:04;;;;;;;1.50;1.00;;;13.70;97.90;;;;;;5022155;28;20846;-78
2022/05/07 00:51:35;;;;;;;1.40;0.93;;;13.80;96.60;;;;;;5015491;28;20483;-79
2022/05/07 00:54:07;;;;;;;1.50;1.10;;;13.70;97.30;;;;;;5013029;28;21032;-80
2022/05/07 00:56:37;;;;;;;1.47;1.03;;;13.70;96.80;;;;;;5015563;28;20487;-78
2022/05/07 00:59:04;;;;;;;1.43;1.00;;;13.70;97.60;;;;;;5014102;28;20468;-78
2022/05/07 01:01:31;;;;;;;1.50;1.00;;;13.60;98.20;;;;;;5009912;28;20478;-78
2022/05/07 01:03:58;;;;;;;1.47;1.00;;;13.60;98.20;;;;;;5023360;28;20475;-79
2022/05/07 01:06:25;;;;;;;1.43;1.00;;;13.60;97.80;;;;;;5017941;28;20483;-78
2022/05/07 01:08:52;;;;;;;1.50;1.10;;;13.60;97.30;;;;;;5016516;28;20475;-79
2022/05/07 01:11:19;;;;;;;1.47;1.10;;;13.60;96.90;;;;;;5017806;28;20838;-79
2022/05/07 01:13:48;;;;;;;1.47;1.00;;;13.60;97.30;;;;;;5013843;28;20829;-79
2022/05/07 01:16:16;;;;;;;1.50;1.00;;;13.50;97.70;;;;;;5008323;28;20486;-78
2022/05/07 01:18:43;;;;;;;1.43;1.00;;;13.50;97.90;;;;;;5025591;28;20472;-79
2022/05/07 01:21:14;;;;;;;1.50;1.07;;;13.50;97.60;;;;;;5014214;28;20514;-79
2022/05/07 01:23:43;;;;;;;1.50;1.10;;;13.50;98.20;;;;;;5015211;28;20464;-80
2022/05/07 01:26:10;;;;;;;1.43;1.00;;;13.50;98.10;;;;;;5016486;28;20933;-79
2022/05/07 01:28:37;;;;;;;1.70;1.60;;;13.50;98.00;;;;;;5013367;28;20468;-78
2022/05/07 01:31:04;;;;;;;1.50;1.00;;;13.40;98.10;;;;;;5013646;28;20799;-78
2022/05/07 01:33:33;;;;;;;1.50;1.10;;;13.40;97.50;;;;;;5014382;28;20530;-77
2022/05/07 01:36:01;;;;;;;1.43;1.00;;;13.40;98.20;;;;;;5013236;28;20530;-77
2022/05/07 01:38:30;;;;;;;1.47;1.00;;;13.40;98.20;;;;;;5012137;28;20605;-80
2022/05/07 01:40:59;;;;;;;1.43;1.00;;;13.30;98.20;;;;;;5005979;28;20480;-80
2022/05/07 01:43:27;;;;;;;1.50;1.00;;;13.30;98.20;;;;;;4999909;28;20464;-79
2022/05/07 01:45:54;;;;;;;1.47;1.00;;;13.30;98.20;;;;;;5010585;28;20487;-78
2022/05/07 01:48:20;;;;;;;1.50;1.00;;;13.30;98.20;;;;;;5012270;28;20472;-78
2022/05/07 01:50:47;;;;;;;1.50;1.10;;;13.30;98.20;;;;;;5012604;28;20464;-78
2022/05/07 01:53:15;;;;;;;1.47;1.00;;;13.20;98.20;;;;;;5013581;28;20217;-78
2022/05/07 01:55:44;;;;;;;1.50;1.00;;;13.20;98.20;;;;;;5007075;28;20494;-79
2022/05/07 01:58:11;;;;;;;1.50;1.10;;;13.10;98.20;;;;;;5008427;28;20535;-77
2022/05/07 02:00:40;;;;;;;1.43;1.00;;;13.10;98.20;;;;;;5013095;28;20494;-79
2022/05/07 02:03:07;;;;;;;1.50;1.00;;;13.10;98.20;;;;;;5019807;28;20499;-78
2022/05/07 02:05:34;;;;;;;1.50;1.20;;;13.10;98.20;;;;;;5010223;28;20860;-78
2022/05/07 02:08:01;;;;;;;1.50;1.10;;;13.10;98.20;;;;;;5007946;28;20461;-79
2022/05/07 02:10:29;;;;;;;1.50;1.00;;;13.10;98.20;;;;;;5011972;28;20460;-76
2022/05/07 02:12:57;;;;;;;1.50;1.10;;;13.10;98.20;;;;;;5011475;28;20515;-78
2022/05/07 02:15:24;;;;;;;1.43;1.00;;;13.00;98.20;;;;;;5008693;28;21046;-76
2022/05/07 02:17:51;;;;;;;1.40;1.00;;;13.00;98.20;;;;;;5012743;28;20456;-77
2022/05/07 02:20:18;;;;;;;1.50;1.10;;;13.00;98.20;;;;;;5007100;28;20457;-77
2022/05/07 02:22:45;;;;;;;1.47;1.00;;;12.90;98.20;;;;;;5011546;28;20457;-77
2022/05/07 02:25:12;;;;;;;1.50;1.03;;;12.90;98.20;;;;;;5008565;28;20494;-77
2022/05/07 02:27:39;;;;;;;1.50;1.10;;;12.90;98.20;;;;;;5011915;28;20475;-75
2022/05/07 02:30:08;;;;;;;1.50;1.07;;;12.90;98.20;;;;;;5009028;28;20962;-77
2022/05/07 02:32:34;;;;;;;1.50;1.10;;;12.90;98.20;;;;;;5011422;28;20484;-76
2022/05/07 02:35:01;;;;;;;1.50;1.00;;;12.90;98.20;;;;;;5007927;28;20483;-77
2022/05/07 02:37:28;;;;;;;1.47;1.00;;;12.80;98.20;;;;;;5010999;28;20464;-77
2022/05/07 02:39:54;;;;;;;1.50;1.10;;;12.80;98.20;;;;;;5009236;28;20828;-77
2022/05/07 02:42:39;;;;;;;1.50;1.10;;;12.80;98.20;;;;;;5010005;28;20456;-77
2022/05/07 02:45:09;;;;;;;1.50;1.07;;;12.80;98.20;;;;;;5008487;28;20554;-78
2022/05/07 02:47:37;;;;;;;1.47;1.00;;;12.80;98.20;;;;;;5015111;28;20460;-79
2022/05/07 02:50:04;;;;;;;1.43;1.00;;;12.80;98.20;;;;;;5016956;28;20978;-79
2022/05/07 02:52:33;;;;;;;1.50;1.07;;;12.80;98.20;;;;;;5019894;28;20484;-79
2022/05/07 02:55:01;;;;;;;1.50;1.10;;;12.80;98.20;;;;;;5017198;28;20495;-79
2022/05/07 02:57:27;;;;;;;1.50;1.10;;;12.70;98.20;;;;;;5023924;28;20880;-78
2022/05/07 02:59:54;;;;;;;1.50;1.20;;;12.70;98.20;;;;;;5016360;28;20468;-79
2022/05/07 03:02:22;;;;;;;1.47;1.00;;;12.70;98.20;;;;;;5019553;28;20467;-79
2022/05/07 03:04:49;;;;;;;1.50;1.00;;;12.70;98.20;;;;;;5015152;28;20988;-79
2022/05/07 03:07:17;;;;;;;1.53;1.10;;;12.70;98.20;;;;;;5019191;28;20987;-77
2022/05/07 03:09:44;;;;;;;1.43;1.00;;;12.60;98.20;;;;;;5015055;28;21132;-78
2022/05/07 03:12:11;;;;;;;1.50;1.10;;;12.60;98.20;;;;;;5016321;28;20499;-77
2022/05/07 03:14:38;;;;;;;1.50;1.00;;;12.60;98.20;;;;;;5016781;28;20871;-77
2022/05/07 03:17:05;;;;;;;1.50;1.10;;;12.50;98.20;;;;;;5047812;22;20474;-77
2022/05/07 03:19:34;;;;;;;1.50;1.10;;;12.50;98.20;;;;;;5036797;28;20562;-77
2022/05/07 03:22:01;;;;;;;1.50;1.00;;;12.50;98.20;;;;;;5040150;28;21024;-76
2022/05/07 03:24:27;;;;;;;1.43;1.00;;;12.50;98.20;;;;;;5048855;28;20469;-78
2022/05/07 03:27:24;;;;;;;1.50;1.00;;;12.40;98.20;;;;;;5034291;28;20490;-76
2022/05/07 03:32:49;;;;;;;1.50;1.10;;;12.40;98.20;;;;;;5035652;28;20498;-76
2022/05/07 03:35:40;;;;;;;1.50;1.40;;;12.40;98.20;;;;;;5033866;28;20481;-76
2022/05/07 03:38:27;;;;;;;1.50;1.00;;;12.40;98.20;;;;;;5033154;28;20474;-76
2022/05/07 03:41:05;;;;;;;1.50;1.10;;;12.40;98.20;;;;;;5030900;28;21037;-77
2022/05/07 03:43:33;;;;;;;2.07;1.30;;;12.40;98.20;;;;;;5031837;28;20988;-77
2022/05/07 03:46:00;;;;;;;1.50;1.17;;;12.40;98.20;;;;;;5031472;28;20517;-77
2022/05/07 03:48:41;;;;;;;1.83;1.73;;;12.40;98.20;;;;;;5032698;28;20959;-76
2022/05/07 03:51:10;;;;;;;1.47;1.10;;;12.40;98.20;;;;;;5031882;28;20455;-76
2022/05/07 03:57:13;;;;;;;1.50;1.10;;;12.40;98.20;;;;;;4955842;28;20462;-78
2022/05/07 04:16:52;;;;;;;1.50;1.00;;;12.40;98.20;;;;;;5099252;22;20580;-77
2022/05/07 04:19:19;;;;;;;1.43;1.00;;;12.40;98.20;;;;;;5065355;28;20469;-78
2022/05/07 04:21:46;;;;;;;1.43;1.10;;;12.40;98.20;;;;;;5065175;28;20454;-77
2022/05/07 04:24:13;;;;;;;1.50;1.00;;;12.40;98.20;;;;;;5064766;28;20545;-78
2022/05/07 04:26:41;;;;;;;1.50;1.00;;;12.50;98.20;;;;;;5064092;28;20490;-78
2022/05/07 04:29:08;;;;;;;1.50;1.00;;;12.50;98.20;;;;;;5060248;28;20485;-77
2022/05/07 04:31:35;;;;;;;1.50;1.10;;;12.50;98.20;;;;;;5061113;28;20949;-77
2022/05/07 04:34:02;;;;;;;1.47;1.07;;;12.50;98.20;;;;;;5064349;28;20461;-77
2022/05/07 04:36:29;;;;;;;1.50;1.10;;;12.50;98.20;;;;;;5064892;28;20482;-77
2022/05/07 04:38:55;;;;;;;1.47;1.10;;;12.50;98.20;;;;;;5063081;28;20469;-77
2022/05/07 04:44:19;;;;;;;1.47;1.10;;;12.50;98.20;;;;;;5063579;28;20473;-78
2022/05/07 04:46:46;;;;;;;1.40;1.00;;;12.50;98.20;;;;;;5064979;28;20477;-78
2022/05/07 04:49:14;;;;;;;1.47;1.00;;;12.40;98.20;;;;;;5066050;28;20492;-78
2022/05/07 04:51:40;;;;;;;1.60;1.40;;;12.40;98.20;;;;;;5052553;28;20838;-78
2022/05/07 04:54:07;;;;;;;1.40;1.00;;;12.40;98.20;;;;;;5055035;28;20458;-78
2022/05/07 04:56:34;;;;;;;1.50;1.10;;;12.40;98.20;;;;;;5036690;28;20486;-78
2022/05/07 04:59:01;;;;;;;1.50;1.20;;;12.40;98.20;;;;;;5046517;28;20553;-78
2022/05/07 05:01:29;;;;;;;1.47;1.10;;;12.50;98.20;;;;;;5045664;28;20471;-78
2022/05/07 05:03:56;;;;;;;1.50;1.10;;;12.60;98.20;;;;;;5046249;28;20459;-78
2022/05/07 05:06:23;;;;;;;1.47;0.90;;;12.80;98.20;;;;;;5047106;28;20482;-78
2022/05/07 05:08:50;;;;;;;1.50;1.10;;;12.90;98.20;;;;;;5046206;28;20478;-78
2022/05/07 05:11:16;;;;;;;1.50;1.10;;;13.00;98.20;;;;;;5040950;28;20491;-79
2022/05/07 05:15:01;;;;;;;1.50;1.10;;;13.00;98.20;;;;;;5044357;28;20463;-78
2022/05/07 05:16:53;;;;;;;1.60;1.27;;;13.10;98.20;;;;;;5025296;28;20561;-79
2022/05/07 05:19:21;;;;;;;1.50;1.10;;;13.10;98.20;;;;;;5045503;28;20439;-81
2022/05/07 05:21:48;;;;;;;1.47;1.00;;;13.20;98.20;;;;;;5044702;28;20525;-79
2022/05/07 05:24:17;;;;;;;1.47;1.00;;;13.20;98.20;;;;;;5035901;28;20897;-77
2022/05/07 05:26:44;;;;;;;1.47;0.90;;;13.30;98.20;;;;;;5028975;28;20488;-79
2022/05/07 05:29:10;;;;;;;1.50;1.00;;;13.40;98.20;;;;;;5022695;28;20492;-79
2022/05/07 05:31:37;;;;;;;1.50;1.00;;;13.60;98.20;;;;;;5036726;28;20470;-79
2022/05/07 05:34:05;;;;;;;1.50;1.10;;;13.70;98.20;;;;;;5036169;28;20474;-78
2022/05/07 05:36:32;;;;;;;1.43;1.00;;;13.70;98.20;;;;;;5036280;28;20518;-78
2022/05/07 05:38:59;;;;;;;1.50;1.20;;;13.80;98.20;;;;;;5035854;28;20826;-78
2022/05/07 05:41:26;;;;;;;1.47;1.00;;;13.90;98.20;;;;;;5047323;28;20760;-78
2022/05/07 05:43:53;;;;;;;1.50;1.10;;;14.00;98.20;;;;;;5037741;28;20465;-79
2022/05/07 05:46:20;;;;;;;1.50;1.00;;;14.10;98.20;;;;;;5028478;28;20901;-79
2022/05/07 05:48:46;;;;;;;1.47;1.00;;;14.20;98.20;;;;;;5041932;28;21048;-77
2022/05/07 05:51:17;;;;;;;1.50;1.00;;;14.40;98.20;;;;;;5032314;28;20493;-78
2022/05/07 05:53:48;;;;;;;1.50;1.10;;;14.40;97.20;;;;;;5036633;28;20474;-79
2022/05/07 05:56:21;;;;;;;1.40;1.00;;;14.50;97.10;;;;;;5032684;28;20540;-77
2022/05/07 05:58:47;;;;;;;1.50;1.00;;;14.60;97.10;;;;;;5031525;28;20459;-78
2022/05/07 06:01:14;;;;;;;1.50;1.00;;;14.70;96.30;;;;;;5023464;28;20497;-77
2022/05/07 06:03:41;;;;;;;1.50;1.00;;;14.80;96.40;;;;;;5029797;28;20467;-77
2022/05/07 06:06:08;;;;;;;1.50;1.00;;;14.90;96.40;;;;;;5031717;28;20479;-78
2022/05/07 06:08:38;;;;;;;1.50;1.00;;;15.10;95.70;;;;;;5042191;28;20455;-79
2022/05/07 06:11:38;;;;;;;1.50;1.00;;;15.20;95.80;;;;;;5052156;28;20585;-79
2022/05/07 06:14:08;;;;;;;1.50;0.90;;;15.30;95.30;;;;;;5023885;28;20468;-79
2022/05/07 06:16:35;;;;;;;1.43;0.90;;;15.50;95.00;;;;;;5039118;28;20483;-83
2022/05/07 06:19:03;;;;;;;1.87;1.67;;;15.70;94.60;;;;;;5037962;28;20574;-79
2022/05/07 06:21:30;;;;;;;1.80;1.27;;;15.80;94.70;;;;;;5034729;28;20467;-79
2022/05/07 06:27:28;;;;;;;1.47;1.00;;;15.90;94.70;;;;;;5035483;28;20474;-78
2022/05/07 06:29:30;;;;;;;1.50;0.90;;;16.20;94.40;;;;;;5038105;28;21016;-79
2022/05/07 06:31:57;;;;;;;1.50;1.00;;;16.30;93.70;;;;;;5026919;28;20513;-79
2022/05/07 06:34:24;;;;;;;1.50;1.00;;;16.40;94.10;;;;;;5030165;28;20467;-83
2022/05/07 06:36:58;;;;;;;1.43;0.90;;;16.50;93.10;;;;;;5030173;28;20484;-80
2022/05/07 06:39:26;;;;;;;1.50;1.00;;;16.60;93.00;;;;;;5032628;28;20475;-79
2022/05/07 06:41:53;;;;;;;1.50;1.20;;;16.60;93.40;;;;;;5023484;28;20629;-80
2022/05/07 06:44:23;;;;;;;1.50;0.97;;;16.80;93.00;;;;;;5043123;28;20472;-79
2022/05/07 06:46:51;;;;;;;1.47;0.90;;;17.10;92.30;;;;;;5037533;28;20524;-78
2022/05/07 06:49:18;;;;;;;1.47;0.90;;;17.20;91.80;;;;;;5031034;28;20474;-78
2022/05/07 06:51:45;;;;;;;1.50;1.00;;;17.40;90.90;;;;;;5022292;28;20547;-78
2022/05/07 06:54:12;;;;;;;1.50;0.90;;;17.60;90.80;;;;;;5031192;28;20470;-81
2022/05/07 06:56:41;;;;;;;1.60;1.37;;;17.80;89.90;;;;;;5034798;28;21015;-83
2022/05/07 06:59:09;;;;;;;1.60;1.30;;;18.00;89.50;;;;;;5032496;28;20489;-80
2022/05/07 07:01:37;;;;;;;1.50;1.10;;;18.00;89.30;;;;;;5028137;28;20456;-78
2022/05/07 07:04:04;;;;;;;1.50;0.97;;;18.20;88.90;;;;;;5035093;28;20956;-80
2022/05/07 07:06:31;;;;;;;1.47;0.90;;;18.30;89.10;;;;;;5028755;28;20491;-79
2022/05/07 07:08:57;;;;;;;1.47;0.90;;;18.40;88.50;;;;;;5035487;28;20473;-83
2022/05/07 07:11:25;;;;;;;1.50;0.90;;;18.60;88.30;;;;;;5033291;28;20483;-80
2022/05/07 07:13:53;;;;;;;1.43;0.90;;;18.90;88.00;;;;;;5037105;28;20539;-82
2022/05/07 07:16:20;;;;;;;1.47;0.90;;;19.00;87.70;;;;;;5033684;28;20490;-80
2022/05/07 07:18:47;;;;;;;1.60;1.17;;;19.30;87.50;;;;;;5035141;28;20467;-79
2022/05/07 07:21:14;;;;;;;1.60;1.10;;;19.60;86.00;;;;;;5032431;28;20459;-79
2022/05/07 07:23:41;;;;;;;1.60;1.10;;;19.60;85.60;;;;;;5035536;28;20550;-78
2022/05/07 07:26:08;;;;;;;1.50;0.90;;;19.70;85.00;;;;;;5033370;28;20506;-78
2022/05/07 07:28:35;;;;;;;1.47;0.90;;;19.80;84.40;;;;;;5035433;28;20487;-81
2022/05/07 07:31:04;;;;;;;1.50;0.90;;;20.00;84.20;;;;;;5031150;28;20491;-79
2022/05/07 07:33:30;;;;;;;1.50;0.90;;;20.20;83.90;;;;;;5030344;28;20463;-79
2022/05/07 07:35:57;;;;;;;1.43;0.97;;;20.50;82.70;;;;;;5035467;28;20493;-79
2022/05/07 07:38:25;;;;;;;1.50;0.90;;;20.70;82.10;;;;;;5030308;28;20554;-81
2022/05/07 07:40:53;;;;;;;1.50;0.90;;;21.00;81.70;;;;;;5026167;28;20836;-80
2022/05/07 07:43:23;;;;;;;1.50;0.87;;;21.10;80.00;;;;;;5034522;28;20845;-77
2022/05/07 07:48:39;;;;;;;4.53;3.17;;;21.50;79.80;;;;;;5046004;28;20453;-76
2022/05/07 07:51:07;;;;;;;1.43;0.90;;;21.60;79.50;;;;;;5029410;28;20491;-76
2022/05/07 07:53:38;;;;;;;1.50;1.10;;;21.70;79.60;;;;;;5030919;28;20459;-78
2022/05/07 07:56:07;;;;;;;1.47;0.80;;;21.80;78.00;;;;;;5024325;28;20498;-77
2022/05/07 07:58:40;;;;;;;1.50;0.90;;;21.90;78.40;;;;;;5042943;28;20963;-77
2022/05/07 08:01:16;;;;;;;1.47;0.90;;;21.90;78.70;;;;;;5032667;28;20903;-77
2022/05/07 08:04:01;;;;;;;1.50;0.90;;;22.10;77.90;;;;;;5036894;28;20469;-76
2022/05/07 08:06:33;;;;;;;1.50;0.90;;;22.20;77.50;;;;;;5034709;28;20483;-78
2022/05/07 08:11:50;;;;;;;1.47;0.90;;;22.60;78.00;;;;;;5040856;28;20477;-76
2022/05/07 08:14:20;;;;;;;1.43;0.90;;;22.90;74.50;;;;;;5037501;28;20529;-77
2022/05/07 08:16:47;;;;;;;1.43;0.90;;;23.20;73.30;;;;;;5037567;28;20517;-77
2022/05/07 08:19:36;;;;;;;1.47;0.90;;;23.30;72.90;;;;;;5040010;28;20463;-76
2022/05/07 08:25:02;;;;;;;1.50;1.00;;;23.20;72.50;;;;;;5068648;22;20501;-77
2022/05/07 08:27:29;;;;;;;1.47;0.83;;;23.30;71.50;;;;;;5059649;28;20465;-79
2022/05/07 08:29:56;;;;;;;1.47;0.90;;;23.40;70.20;;;;;;5061172;28;20461;-77
2022/05/07 08:32:23;;;;;;;1.43;0.90;;;23.30;70.70;;;;;;5061565;28;20466;-77
2022/05/07 08:34:51;;;;;;;1.97;1.77;;;23.30;70.70;;;;;;5058175;28;20481;-77
2022/05/07 08:37:18;;;;;;;1.43;0.90;;;23.30;71.70;;;;;;5060477;28;20488;-75
2022/05/07 08:39:45;;;;;;;1.47;0.90;;;23.50;73.00;;;;;;5059637;28;20480;-75
2022/05/07 08:42:12;;;;;;;1.47;0.90;;;23.70;71.00;;;;;;5061629;28;20476;-76
2022/05/07 08:44:39;;;;;;;1.43;0.90;;;23.80;70.30;;;;;;5068210;28;20481;-76
2022/05/07 08:47:06;;;;;;;1.47;0.90;;;24.00;70.50;;;;;;5062090;28;20511;-76
2022/05/07 08:49:33;;;;;;;1.50;0.90;;;24.20;71.30;;;;;;5058674;28;20538;-77
2022/05/07 08:52:03;;;;;;;1.43;0.80;;;24.50;70.30;;;;;;5055212;28;20954;-76
2022/05/07 08:54:31;;;;;;;1.50;0.90;;;24.70;70.40;;;;;;5062498;28;20516;-76
2022/05/07 08:56:58;;;;;;;1.50;0.90;;;24.80;69.00;;;;;;5066462;28;20488;-76
2022/05/07 08:59:25;;;;;;;1.50;0.90;;;24.90;69.60;;;;;;5065092;28;20507;-76
2022/05/07 09:01:52;;;;;;;1.50;0.90;;;25.20;68.30;;;;;;5057733;28;20495;-77
2022/05/07 09:04:19;;;;;;;1.40;0.80;;;25.40;68.20;;;;;;5066304;28;20531;-76
2022/05/07 09:06:56;;;;;;;1.47;0.90;;;25.50;67.20;;;;;;5063307;28;20809;-77
2022/05/07 09:09:24;;;;;;;1.40;0.83;;;25.60;67.10;;;;;;5058494;28;20462;-77
2022/05/07 09:11:51;;;;;;;1.40;0.80;;;25.80;66.70;;;;;;5062275;28;20548;-77
2022/05/07 09:14:19;;;;;;;1.43;0.90;;;25.90;66.70;;;;;;5064809;28;20569;-76
2022/05/07 09:16:48;;;;;;;1.47;0.80;;;26.00;66.50;;;;;;5062937;28;20477;-77
2022/05/07 09:19:23;;;;;;;1.50;1.00;;;26.10;65.70;;;;;;5057993;28;20477;-77
2022/05/07 09:21:50;;;;;;;1.40;0.90;;;26.20;65.50;;;;;;5056014;28;20462;-77
2022/05/07 09:24:18;;;;;;;1.43;0.90;;;26.30;66.00;;;;;;5059703;28;20525;-77
2022/05/07 09:26:47;;;;;;;1.50;1.00;;;26.40;65.70;;;;;;5059078;28;20594;-77
2022/05/07 09:29:15;;;;;;;1.47;0.83;;;26.50;66.40;;;;;;5057107;28;20462;-77
2022/05/07 09:31:44;;;;;;;1.43;0.90;;;26.50;64.50;;;;;;5051770;28;20481;-76
2022/05/07 09:36:57;;;;;;;1.50;0.80;;;26.70;64.40;;;;;;5063720;28;20572;-77
2022/05/07 09:39:32;;;;;;;1.43;0.80;;;26.90;64.10;;;;;;5054177;28;20507;-77
2022/05/07 09:42:04;;;;;;;1.47;0.80;;;27.00;63.40;;;;;;5055173;28;20467;-76
2022/05/07 09:44:32;;;;;;;1.43;0.90;;;27.00;65.00;;;;;;5057258;28;20482;-75
2022/05/07 09:46:59;;;;;;;1.43;0.80;;;27.20;64.10;;;;;;5057903;28;20462;-78
2022/05/07 09:49:27;;;;;;;1.40;0.83;;;27.20;62.30;;;;;;5061005;28;20564;-77
2022/05/07 09:51:55;;;;;;;1.47;0.80;;;27.40;63.30;;;;;;5055807;28;20488;-77
2022/05/07 09:59:54;;;;;;;1.50;1.00;;;28.00;63.90;;;;;;5057665;28;20448;-77
2022/05/07 10:02:29;;;;;;;1.43;0.80;;;28.10;64.70;;;;;;5058301;28;20499;-77
2022/05/07 10:05:18;;;;;;;1.50;0.80;;;28.20;62.90;;;;;;5055914;28;20491;-77
2022/05/07 10:07:59;;;;;;;1.43;0.80;;;28.20;62.70;;;;;;5047293;28;20805;-77
2022/05/07 10:10:29;;;;;;;1.50;0.90;;;28.40;63.80;;;;;;5057617;28;20721;-77
2022/05/07 10:13:00;;;;;;;1.50;0.90;;;28.50;62.30;;;;;;5059706;28;20469;-77
2022/05/07 10:15:28;;;;;;;1.40;0.80;;;28.50;62.50;;;;;;5058420;28;20462;-77
2022/05/07 10:18:02;;;;;;;1.47;0.80;;;28.50;61.20;;;;;;5062843;28;20486;-77
2022/05/07 10:20:39;;;;;;;2.03;1.63;;;28.40;61.70;;;;;;5060639;28;20452;-77
2022/05/07 10:23:08;;;;;;;1.50;0.80;;;28.60;63.00;;;;;;5060164;28;20487;-77
2022/05/07 10:25:35;;;;;;;1.47;0.80;;;28.90;61.20;;;;;;5060512;28;20942;-75
2022/05/07 10:28:11;;;;;;;1.43;0.80;;;29.00;61.30;;;;;;5055830;28;20530;-76
2022/05/07 10:30:48;;;;;;;1.43;0.80;;;29.20;61.20;;;;;;5055482;28;20575;-76
2022/05/07 10:33:15;;;;;;;1.40;0.80;;;29.30;60.10;;;;;;5055905;28;21291;-76
2022/05/07 10:35:44;;;;;;;1.43;0.80;;;29.30;60.30;;;;;;5055050;28;21028;-76
2022/05/07 10:38:13;;;;;;;1.50;0.80;;;29.40;59.90;;;;;;5059379;28;20467;-76
2022/05/07 10:40:55;;;;;;;1.50;0.90;;;29.50;60.60;;;;;;5055645;28;21224;-75
2022/05/07 10:43:29;;;;;;;1.50;0.90;;;29.70;62.30;;;;;;5047574;28;20480;-75
2022/05/07 10:45:56;;;;;;;1.47;0.90;;;29.80;60.40;;;;;;5051457;28;20957;-76
2022/05/07 10:48:23;;;;;;;1.50;0.80;;;29.80;58.90;;;;;;5052206;28;20894;-77
2022/05/07 10:50:52;;;;;;;1.47;0.80;;;29.80;61.00;;;;;;5054157;28;20807;-77
2022/05/07 10:53:19;;;;;;;1.47;0.87;;;29.90;61.10;;;;;;5055218;28;20478;-77
2022/05/07 10:55:46;;;;;;;1.77;1.37;;;30.10;59.70;;;;;;5060898;28;20471;-78
2022/05/07 10:58:13;;;;;;;1.47;0.80;;;30.20;58.40;;;;;;5042714;28;20930;-78
2022/05/07 11:00:41;;;;;;;1.40;0.80;;;30.10;58.00;;;;;;5058890;28;20479;-77
2022/05/07 11:03:25;;;;;;;1.43;0.80;;;30.10;59.10;;;;;;5048857;28;20497;-78
2022/05/07 11:05:52;;;;;;;1.43;0.80;;;30.00;59.10;;;;;;5053107;28;20623;-76
2022/05/07 11:08:21;;;;;;;1.43;0.80;;;29.90;60.00;;;;;;5057790;28;20460;-77
2022/05/07 11:10:47;;;;;;;1.43;0.80;;;29.70;59.80;;;;;;5051443;28;20594;-77
2022/05/07 11:13:19;;;;;;;1.43;0.80;;;29.70;60.50;;;;;;5069460;28;20486;-77
2022/05/07 11:15:50;;;;;;;1.40;0.80;;;29.80;59.50;;;;;;5055480;28;20468;-77
2022/05/07 11:18:19;;;;;;;1.47;0.80;;;29.70;59.00;;;;;;5057015;28;20468;-76
2022/05/07 11:20:46;;;;;;;1.47;0.80;;;29.70;60.20;;;;;;5052759;28;21141;-78
2022/05/07 11:23:14;;;;;;;1.43;0.80;;;29.70;58.50;;;;;;5044748;28;20470;-76
2022/05/07 11:25:45;;;;;;;1.40;0.80;;;29.90;59.00;;;;;;5054679;28;20478;-76
2022/05/07 11:28:12;;;;;;;1.40;0.87;;;30.00;60.00;;;;;;5058083;28;21093;-76
2022/05/07 11:30:40;;;;;;;1.43;0.80;;;30.00;59.50;;;;;;5055411;28;21000;-75
2022/05/07 11:33:08;;;;;;;1.43;0.80;;;29.90;59.60;;;;;;5056838;28;20493;-75
2022/05/07 11:35:35;;;;;;;1.50;0.80;;;29.70;59.20;;;;;;5051743;28;20588;-75
2022/05/07 11:38:13;;;;;;;1.50;0.80;;;29.30;59.00;;;;;;5054231;28;20465;-75
2022/05/07 11:40:40;;;;;;;1.47;0.80;;;29.00;59.50;;;;;;5058947;28;20808;-75
2022/05/07 11:46:06;;;;;;;1.50;0.90;;;28.50;59.90;;;;;;5054518;28;20863;-75
2022/05/07 11:48:34;;;;;;;1.43;0.80;;;28.60;60.90;;;;;;5060836;28;20468;-75
2022/05/07 11:51:01;;;;;;;1.50;1.00;;;28.70;61.10;;;;;;5054316;28;20473;-75
2022/05/07 11:53:29;;;;;;;1.40;0.80;;;28.80;60.80;;;;;;5055146;28;20814;-75
2022/05/07 11:56:06;;;;;;;1.43;0.80;;;28.70;58.40;;;;;;5051881;28;20480;-75
2022/05/07 11:58:41;;;;;;;1.43;0.80;;;28.70;60.30;;;;;;5054463;28;20461;-75
2022/05/07 12:01:19;;;;;;;3.20;1.63;;;28.70;59.60;;;;;;5057637;28;20529;-75
2022/05/07 12:03:47;;;;;;;1.40;0.80;;;28.70;60.70;;;;;;5052795;28;20489;-75
2022/05/07 12:06:24;;;;;;;1.47;0.90;;;28.80;60.30;;;;;;5053823;28;20489;-75
2022/05/07 12:08:52;;;;;;;1.47;0.80;;;28.80;60.50;;;;;;5053913;28;20907;-75
2022/05/07 12:11:20;;;;;;;1.50;0.90;;;29.00;58.20;;;;;;5048805;28;20484;-74
2022/05/07 12:13:48;;;;;;;1.40;0.80;;;29.00;60.80;;;;;;5055105;28;20568;-76
2022/05/07 12:19:02;;;;;;;1.43;0.80;;;29.10;58.10;;;;;;5054826;28;20476;-77
2022/05/07 12:29:51;;;;;;;1.40;0.80;;;29.30;57.70;;;;;;5054666;28;20463;-76
2022/05/07 12:32:19;;;;;;;1.40;0.80;;;29.10;58.20;;;;;;5055139;28;20948;-77
2022/05/07 12:34:48;;;;;;;1.43;0.80;;;28.90;59.40;;;;;;5059151;28;20892;-77
2022/05/07 12:37:15;;;;;;;1.40;0.80;;;28.90;58.00;;;;;;5051396;28;20460;-77
2022/05/07 12:39:42;;;;;;;1.40;0.80;;;29.10;57.60;;;;;;5056451;28;20572;-77
2022/05/07 12:42:12;;;;;;;1.43;0.90;;;29.20;59.10;;;;;;5051965;28;20448;-77
2022/05/07 12:44:42;;;;;;;1.40;0.80;;;29.20;58.60;;;;;;5052657;28;20546;-77
2022/05/07 12:47:09;;;;;;;1.50;1.00;;;29.30;57.10;;;;;;5057987;28;20580;-76
2022/05/07 12:49:39;;;;;;;1.43;0.80;;;29.40;56.40;;;;;;5058351;28;20690;-77
2022/05/07 12:52:09;;;;;;;1.43;0.80;;;29.50;56.30;;;;;;5051937;28;20583;-76
2022/05/07 12:54:37;;;;;;;1.47;0.90;;;29.70;55.80;;;;;;5051595;28;20480;-77
2022/05/07 12:57:04;;;;;;;1.40;0.80;;;29.80;57.00;;;;;;5055850;28;20469;-77
2022/05/07 12:59:31;;;;;;;1.47;0.80;;;30.00;55.80;;;;;;5054409;28;20570;-77
2022/05/07 13:01:58;;;;;;;1.40;0.80;;;30.10;54.90;;;;;;5063037;28;20569;-76
2022/05/07 13:04:26;;;;;;;1.43;0.80;;;30.10;54.60;;;;;;5054289;28;20831;-76
2022/05/07 13:06:53;;;;;;;1.40;0.90;;;30.30;56.00;;;;;;5055089;28;20456;-76
2022/05/07 13:09:21;;;;;;;1.40;0.80;;;30.40;54.30;;;;;;5054989;28;20850;-76
2022/05/07 13:11:48;;;;;;;2.37;2.17;;;30.50;54.70;;;;;;5057729;28;20487;-77
2022/05/07 13:14:15;;;;;;;1.40;0.80;;;30.70;57.00;;;;;;5061499;28;20508;-77
2022/05/07 13:16:42;;;;;;;1.47;0.80;;;30.80;56.10;;;;;;5049919;28;20469;-77
2022/05/07 13:19:09;;;;;;;1.47;0.80;;;30.90;56.60;;;;;;5060385;28;20475;-78
2022/05/07 13:21:36;;;;;;;1.50;1.00;;;30.90;54.40;;;;;;5053242;28;20479;-78
2022/05/07 13:24:03;;;;;;;1.47;0.80;;;30.90;53.20;;;;;;5059316;28;20713;-77
2022/05/07 13:26:32;;;;;;;1.40;0.80;;;30.80;56.40;;;;;;5061645;28;20462;-77
2022/05/07 13:28:59;;;;;;;1.50;0.80;;;30.90;55.30;;;;;;5055135;28;20996;-78
2022/05/07 13:31:25;;;;;;;1.47;0.90;;;30.90;55.00;;;;;;5061433;28;20468;-77
2022/05/07 13:33:52;;;;;;;1.40;0.80;;;31.00;56.50;;;;;;5054580;28;20527;-77
2022/05/07 13:36:19;;;;;;;1.43;0.80;;;30.90;56.20;;;;;;5056683;28;20468;-75
2022/05/07 13:38:46;;;;;;;1.47;0.80;;;30.80;54.20;;;;;;5053443;28;21211;-75
2022/05/07 13:41:18;;;;;;;1.50;0.90;;;30.60;54.90;;;;;;5052288;28;20911;-76
2022/05/07 13:43:47;;;;;;;1.40;0.80;;;30.40;55.90;;;;;;5057877;28;20492;-77
2022/05/07 13:46:14;;;;;;;1.40;0.80;;;30.40;57.10;;;;;;5045371;28;20479;-77
2022/05/07 13:48:44;;;;;;;1.43;0.80;;;30.30;55.50;;;;;;5062710;28;20483;-77
2022/05/07 13:51:11;;;;;;;1.40;0.80;;;30.10;57.70;;;;;;5054493;28;21528;-76
2022/05/07 13:53:38;;;;;;;1.40;0.80;;;30.10;56.60;;;;;;5053522;28;20580;-76
2022/05/07 13:56:05;;;;;;;1.43;0.80;;;30.10;56.40;;;;;;5051883;28;20465;-77
2022/05/07 13:58:33;;;;;;;1.40;0.80;;;30.20;55.30;;;;;;5055310;28;20464;-76
2022/05/07 14:01:01;;;;;;;1.40;0.80;;;30.20;55.30;;;;;;5055386;28;20461;-78